Morris, Illinois
Current Conditions -  °F | °C
As of 10:15 PM on Tuesday 25 Nov 2014 (Local Time) from KC09 Reporting Station
Scattered Clouds Scattered Clouds  
Wind Chill: 13°   Ceiling: Unl
Heat Index: 20°   Visibility: 10mi
Dew Point: 19°   Wind: 6mph
Humidity: 92%   Direction: 150°SSE
Pressure: 30.2"   Gusts: NA
Location:  41.36°N, 88.42°W
Report Text: KC09 260415Z AUTO 15005KT 10SM SCT012 M06/M07 A3020 RMK AO2 T10641075
Loading
Personal Weather Stations






























Interactive Weather Map New forecast layout! Learn more

10-Day Weather Forecast

Advertisements
Track Severe Weather on mobile